sensor_id;sensor_type;location;lat;lon;timestamp;temperature;humidity
15298;DHT22;7750;48.796;9.026;2023-07-28T00:04:49;21.20;72.40
15298;DHT22;7750;48.796;9.026;2023-07-28T00:28:05;21.00;73.00
15298;DHT22;7750;48.796;9.026;2023-07-28T00:56:28;20.80;73.70
15298;DHT22;7750;48.796;9.026;2023-07-28T01:43:03;20.50;74.60
15298;DHT22;7750;48.796;9.026;2023-07-28T01:48:05;20.50;74.80
15298;DHT22;7750;48.796;9.026;2023-07-28T01:53:07;20.50;74.70
15298;DHT22;7750;48.796;9.026;2023-07-28T01:58:07;20.50;74.90
15298;DHT22;7750;48.796;9.026;2023-07-28T02:03:11;20.50;74.90
15298;DHT22;7750;48.796;9.026;2023-07-28T02:08:33;20.50;75.00
15298;DHT22;7750;48.796;9.026;2023-07-28T04:42:32;20.40;78.50
15298;DHT22;7750;48.796;9.026;2023-07-28T04:47:33;20.30;78.50
15298;DHT22;7750;48.796;9.026;2023-07-28T04:58:21;20.40;79.20
15298;DHT22;7750;48.796;9.026;2023-07-28T05:03:21;20.40;79.10
15298;DHT22;7750;48.796;9.026;2023-07-28T05:08:22;20.50;79.40
15298;DHT22;7750;48.796;9.026;2023-07-28T05:13:23;20.50;79.60
15298;DHT22;7750;48.796;9.026;2023-07-28T05:18:23;20.50;80.00
15298;DHT22;7750;48.796;9.026;2023-07-28T05:23:24;20.50;80.20
15298;DHT22;7750;48.796;9.026;2023-07-28T05:28:24;20.50;80.30
15298;DHT22;7750;48.796;9.026;2023-07-28T05:33:25;20.50;80.40
15298;DHT22;7750;48.796;9.026;2023-07-28T05:38:26;20.60;80.70
15298;DHT22;7750;48.796;9.026;2023-07-28T05:43:27;20.60;80.80
15298;DHT22;7750;48.796;9.026;2023-07-28T05:48:28;20.60;81.10
15298;DHT22;7750;48.796;9.026;2023-07-28T05:53:28;20.70;81.00
15298;DHT22;7750;48.796;9.026;2023-07-28T05:58:29;20.70;81.20
15298;DHT22;7750;48.796;9.026;2023-07-28T06:03:30;20.70;81.90
15298;DHT22;7750;48.796;9.026;2023-07-28T06:08:31;20.80;81.40
15298;DHT22;7750;48.796;9.026;2023-07-28T06:13:32;20.80;81.40
15298;DHT22;7750;48.796;9.026;2023-07-28T06:18:33;20.80;81.70
15298;DHT22;7750;48.796;9.026;2023-07-28T06:23:33;20.80;81.50
15298;DHT22;7750;48.796;9.026;2023-07-28T06:28:34;20.90;81.90
15298;DHT22;7750;48.796;9.026;2023-07-28T06:33:35;20.90;82.00
15298;DHT22;7750;48.796;9.026;2023-07-28T06:38:37;20.90;82.10
15298;DHT22;7750;48.796;9.026;2023-07-28T06:43:38;20.90;82.00
15298;DHT22;7750;48.796;9.026;2023-07-28T06:48:39;20.90;82.20
15298;DHT22;7750;48.796;9.026;2023-07-28T06:54:09;20.90;82.00
15298;DHT22;7750;48.796;9.026;2023-07-28T07:16:30;21.10;82.60
15298;DHT22;7750;48.796;9.026;2023-07-28T07:33:48;21.30;84.10
15298;DHT22;7750;48.796;9.026;2023-07-28T07:39:14;21.40;84.40
15298;DHT22;7750;48.796;9.026;2023-07-28T07:44:30;21.50;84.30
15298;DHT22;7750;48.796;9.026;2023-07-28T07:49:37;21.70;84.10
15298;DHT22;7750;48.796;9.026;2023-07-28T07:54:38;21.80;83.70
15298;DHT22;7750;48.796;9.026;2023-07-28T07:59:38;21.90;83.60
15298;DHT22;7750;48.796;9.026;2023-07-28T08:04:48;21.90;83.00
15298;DHT22;7750;48.796;9.026;2023-07-28T08:09:49;22.00;82.10
15298;DHT22;7750;48.796;9.026;2023-07-28T08:14:50;22.10;82.10
15298;DHT22;7750;48.796;9.026;2023-07-28T08:19:51;22.10;82.00
15298;DHT22;7750;48.796;9.026;2023-07-28T08:24:52;22.20;81.70
15298;DHT22;7750;48.796;9.026;2023-07-28T08:29:52;22.20;81.70
15298;DHT22;7750;48.796;9.026;2023-07-28T08:34:54;22.30;81.90
15298;DHT22;7750;48.796;9.026;2023-07-28T08:39:54;22.40;81.70
15298;DHT22;7750;48.796;9.026;2023-07-28T08:44:55;22.50;81.70
15298;DHT22;7750;48.796;9.026;2023-07-28T08:49:56;22.60;81.20
15298;DHT22;7750;48.796;9.026;2023-07-28T08:54:57;22.70;81.30
15298;DHT22;7750;48.796;9.026;2023-07-28T08:59:58;22.80;81.00
15298;DHT22;7750;48.796;9.026;2023-07-28T09:05:02;22.90;80.50
15298;DHT22;7750;48.796;9.026;2023-07-28T09:10:04;23.00;80.30
15298;DHT22;7750;48.796;9.026;2023-07-28T09:15:05;23.10;80.80
15298;DHT22;7750;48.796;9.026;2023-07-28T09:20:14;23.20;80.60
15298;DHT22;7750;48.796;9.026;2023-07-28T09:25:16;23.30;79.30
15298;DHT22;7750;48.796;9.026;2023-07-28T09:30:17;23.30;78.90
15298;DHT22;7750;48.796;9.026;2023-07-28T09:35:19;23.50;79.00
15298;DHT22;7750;48.796;9.026;2023-07-28T09:40:21;23.60;79.30
15298;DHT22;7750;48.796;9.026;2023-07-28T09:45:23;23.70;78.80
15298;DHT22;7750;48.796;9.026;2023-07-28T09:50:24;23.80;78.20
15298;DHT22;7750;48.796;9.026;2023-07-28T09:55:26;23.80;77.60
15298;DHT22;7750;48.796;9.026;2023-07-28T10:00:27;23.90;77.50
15298;DHT22;7750;48.796;9.026;2023-07-28T10:05:29;23.90;76.40
15298;DHT22;7750;48.796;9.026;2023-07-28T10:10:30;24.00;75.90
15298;DHT22;7750;48.796;9.026;2023-07-28T10:15:32;24.10;75.80
15298;DHT22;7750;48.796;9.026;2023-07-28T10:20:36;24.10;74.90
15298;DHT22;7750;48.796;9.026;2023-07-28T10:25:37;24.10;74.30
15298;DHT22;7750;48.796;9.026;2023-07-28T10:30:52;24.00;73.20
15298;DHT22;7750;48.796;9.026;2023-07-28T10:35:53;24.00;73.00
15298;DHT22;7750;48.796;9.026;2023-07-28T10:46:27;24.00;72.50
15298;DHT22;7750;48.796;9.026;2023-07-28T10:51:28;23.90;72.50
15298;DHT22;7750;48.796;9.026;2023-07-28T10:56:34;23.90;72.50
15298;DHT22;7750;48.796;9.026;2023-07-28T11:01:36;24.00;73.00
15298;DHT22;7750;48.796;9.026;2023-07-28T11:06:38;24.00;73.50
15298;DHT22;7750;48.796;9.026;2023-07-28T11:11:41;24.20;73.40
15298;DHT22;7750;48.796;9.026;2023-07-28T11:16:42;24.40;73.60
15298;DHT22;7750;48.796;9.026;2023-07-28T11:21:43;24.50;73.20
15298;DHT22;7750;48.796;9.026;2023-07-28T11:26:44;24.70;72.20
15298;DHT22;7750;48.796;9.026;2023-07-28T11:31:47;24.80;72.40
15298;DHT22;7750;48.796;9.026;2023-07-28T11:36:48;24.90;71.50
15298;DHT22;7750;48.796;9.026;2023-07-28T11:41:49;25.00;71.50
15298;DHT22;7750;48.796;9.026;2023-07-28T11:46:54;25.10;72.50
15298;DHT22;7750;48.796;9.026;2023-07-28T11:51:55;25.10;70.90
15298;DHT22;7750;48.796;9.026;2023-07-28T11:56:59;25.20;71.90
15298;DHT22;7750;48.796;9.026;2023-07-28T12:02:01;25.10;72.60
15298;DHT22;7750;48.796;9.026;2023-07-28T12:07:16;25.10;72.80
15298;DHT22;7750;48.796;9.026;2023-07-28T12:12:19;25.10;72.10
15298;DHT22;7750;48.796;9.026;2023-07-28T12:17:21;25.00;72.50
15298;DHT22;7750;48.796;9.026;2023-07-28T12:22:22;24.90;73.40
15298;DHT22;7750;48.796;9.026;2023-07-28T12:27:23;24.90;73.40
15298;DHT22;7750;48.796;9.026;2023-07-28T12:32:25;25.00;73.50
15298;DHT22;7750;48.796;9.026;2023-07-28T12:37:25;25.00;73.60
15298;DHT22;7750;48.796;9.026;2023-07-28T12:42:26;25.00;73.50
15298;DHT22;7750;48.796;9.026;2023-07-28T12:47:27;25.10;73.80
15298;DHT22;7750;48.796;9.026;2023-07-28T12:52:27;25.20;73.00
15298;DHT22;7750;48.796;9.026;2023-07-28T12:57:28;25.20;72.10
15298;DHT22;7750;48.796;9.026;2023-07-28T13:02:50;25.30;71.30
15298;DHT22;7750;48.796;9.026;2023-07-28T13:08:06;25.40;70.40
15298;DHT22;7750;48.796;9.026;2023-07-28T13:13:10;25.40;72.00
15298;DHT22;7750;48.796;9.026;2023-07-28T13:18:10;25.30;72.60
15298;DHT22;7750;48.796;9.026;2023-07-28T13:23:11;25.20;72.90
15298;DHT22;7750;48.796;9.026;2023-07-28T13:28:11;25.10;73.50
15298;DHT22;7750;48.796;9.026;2023-07-28T13:33:12;25.00;74.20
15298;DHT22;7750;48.796;9.026;2023-07-28T13:38:13;25.00;74.00
15298;DHT22;7750;48.796;9.026;2023-07-28T13:43:13;25.00;74.50
15298;DHT22;7750;48.796;9.026;2023-07-28T13:48:14;24.90;74.70
15298;DHT22;7750;48.796;9.026;2023-07-28T13:53:15;24.80;75.00
15298;DHT22;7750;48.796;9.026;2023-07-28T13:58:15;24.60;75.50
15298;DHT22;7750;48.796;9.026;2023-07-28T14:03:16;24.50;75.40
15298;DHT22;7750;48.796;9.026;2023-07-28T14:08:16;24.40;76.10
15298;DHT22;7750;48.796;9.026;2023-07-28T14:13:17;24.30;76.50
15298;DHT22;7750;48.796;9.026;2023-07-28T14:18:18;24.20;76.50
15298;DHT22;7750;48.796;9.026;2023-07-28T14:23:25;24.10;76.70
15298;DHT22;7750;48.796;9.026;2023-07-28T14:28:26;24.10;77.50
15298;DHT22;7750;48.796;9.026;2023-07-28T14:33:27;23.90;77.60
15298;DHT22;7750;48.796;9.026;2023-07-28T14:38:28;23.90;77.70
15298;DHT22;7750;48.796;9.026;2023-07-28T14:43:28;23.90;77.90
15298;DHT22;7750;48.796;9.026;2023-07-28T14:48:29;23.80;78.10
15298;DHT22;7750;48.796;9.026;2023-07-28T14:53:30;23.80;77.80
15298;DHT22;7750;48.796;9.026;2023-07-28T14:58:33;23.70;78.50
15298;DHT22;7750;48.796;9.026;2023-07-28T15:03:34;23.70;79.30
15298;DHT22;7750;48.796;9.026;2023-07-28T15:08:34;23.80;79.50
15298;DHT22;7750;48.796;9.026;2023-07-28T15:13:35;23.80;79.70
15298;DHT22;7750;48.796;9.026;2023-07-28T15:18:36;23.90;79.40
15298;DHT22;7750;48.796;9.026;2023-07-28T15:23:37;24.00;79.50
15298;DHT22;7750;48.796;9.026;2023-07-28T15:28:37;24.10;79.80
15298;DHT22;7750;48.796;9.026;2023-07-28T15:33:38;24.10;79.40
15298;DHT22;7750;48.796;9.026;2023-07-28T15:38:39;24.10;78.30
15298;DHT22;7750;48.796;9.026;2023-07-28T15:43:39;24.00;79.50
15298;DHT22;7750;48.796;9.026;2023-07-28T15:48:40;24.00;78.70
15298;DHT22;7750;48.796;9.026;2023-07-28T15:53:41;24.00;79.00
15298;DHT22;7750;48.796;9.026;2023-07-28T15:58:41;23.90;79.20
15298;DHT22;7750;48.796;9.026;2023-07-28T16:03:42;23.90;79.80
15298;DHT22;7750;48.796;9.026;2023-07-28T16:08:42;23.90;80.00
15298;DHT22;7750;48.796;9.026;2023-07-28T16:13:43;23.90;80.20
15298;DHT22;7750;48.796;9.026;2023-07-28T16:18:44;23.90;80.40
15298;DHT22;7750;48.796;9.026;2023-07-28T16:23:44;23.90;80.60
15298;DHT22;7750;48.796;9.026;2023-07-28T16:28:45;23.90;80.60
15298;DHT22;7750;48.796;9.026;2023-07-28T16:33:45;23.90;80.80
15298;DHT22;7750;48.796;9.026;2023-07-28T16:38:46;23.90;80.80
15298;DHT22;7750;48.796;9.026;2023-07-28T16:43:47;24.00;81.40
15298;DHT22;7750;48.796;9.026;2023-07-28T16:48:47;23.90;81.10
15298;DHT22;7750;48.796;9.026;2023-07-28T16:53:48;23.90;81.10
15298;DHT22;7750;48.796;9.026;2023-07-28T16:58:50;24.00;81.10
15298;DHT22;7750;48.796;9.026;2023-07-28T17:03:52;24.00;81.50
15298;DHT22;7750;48.796;9.026;2023-07-28T17:08:53;24.00;81.70
15298;DHT22;7750;48.796;9.026;2023-07-28T17:13:54;24.00;82.70
15298;DHT22;7750;48.796;9.026;2023-07-28T17:18:54;24.00;81.50
15298;DHT22;7750;48.796;9.026;2023-07-28T17:23:55;24.00;81.10
15298;DHT22;7750;48.796;9.026;2023-07-28T17:28:55;24.00;81.20
15298;DHT22;7750;48.796;9.026;2023-07-28T17:33:57;24.00;81.40
15298;DHT22;7750;48.796;9.026;2023-07-28T17:38:58;24.00;81.40
15298;DHT22;7750;48.796;9.026;2023-07-28T17:43:59;23.90;82.10
15298;DHT22;7750;48.796;9.026;2023-07-28T17:48:59;23.90;82.10
15298;DHT22;7750;48.796;9.026;2023-07-28T17:54:00;23.90;81.70
15298;DHT22;7750;48.796;9.026;2023-07-28T17:59:00;23.90;82.00
15298;DHT22;7750;48.796;9.026;2023-07-28T18:04:01;23.90;82.40
15298;DHT22;7750;48.796;9.026;2023-07-28T18:09:02;23.80;83.20
15298;DHT22;7750;48.796;9.026;2023-07-28T18:14:03;23.80;82.20
15298;DHT22;7750;48.796;9.026;2023-07-28T18:19:03;23.80;82.30
15298;DHT22;7750;48.796;9.026;2023-07-28T18:24:04;23.80;82.00
15298;DHT22;7750;48.796;9.026;2023-07-28T18:29:05;23.70;82.10
15298;DHT22;7750;48.796;9.026;2023-07-28T18:34:05;23.60;82.20
15298;DHT22;7750;48.796;9.026;2023-07-28T18:39:06;23.60;82.30
15298;DHT22;7750;48.796;9.026;2023-07-28T18:44:06;23.50;82.50
15298;DHT22;7750;48.796;9.026;2023-07-28T18:49:07;23.50;82.60
15298;DHT22;7750;48.796;9.026;2023-07-28T18:54:09;23.40;82.70
15298;DHT22;7750;48.796;9.026;2023-07-28T18:59:09;23.30;82.70
15298;DHT22;7750;48.796;9.026;2023-07-28T19:04:10;23.30;82.90
15298;DHT22;7750;48.796;9.026;2023-07-28T19:09:11;23.30;82.90
15298;DHT22;7750;48.796;9.026;2023-07-28T19:14:11;23.30;82.90
15298;DHT22;7750;48.796;9.026;2023-07-28T19:19:12;23.20;82.90
15298;DHT22;7750;48.796;9.026;2023-07-28T19:24:12;23.20;82.80
15298;DHT22;7750;48.796;9.026;2023-07-28T19:29:13;23.20;82.70
15298;DHT22;7750;48.796;9.026;2023-07-28T19:34:14;23.10;82.60
15298;DHT22;7750;48.796;9.026;2023-07-28T19:39:15;23.10;82.50
15298;DHT22;7750;48.796;9.026;2023-07-28T19:44:16;23.00;82.30
15298;DHT22;7750;48.796;9.026;2023-07-28T19:49:17;23.00;82.10
15298;DHT22;7750;48.796;9.026;2023-07-28T19:54:17;22.90;82.00
15298;DHT22;7750;48.796;9.026;2023-07-28T19:59:18;22.90;81.80
15298;DHT22;7750;48.796;9.026;2023-07-28T20:04:18;22.80;81.80
15298;DHT22;7750;48.796;9.026;2023-07-28T20:09:19;22.80;81.90
15298;DHT22;7750;48.796;9.026;2023-07-28T20:14:26;22.70;81.90
15298;DHT22;7750;48.796;9.026;2023-07-28T20:19:26;22.70;82.20
15298;DHT22;7750;48.796;9.026;2023-07-28T20:24:27;22.60;82.20
15298;DHT22;7750;48.796;9.026;2023-07-28T20:29:28;22.60;82.40
15298;DHT22;7750;48.796;9.026;2023-07-28T20:34:29;22.60;82.50
15298;DHT22;7750;48.796;9.026;2023-07-28T20:39:30;22.60;82.40
15298;DHT22;7750;48.796;9.026;2023-07-28T20:44:31;22.50;82.20
15298;DHT22;7750;48.796;9.026;2023-07-28T20:49:31;22.50;82.20
15298;DHT22;7750;48.796;9.026;2023-07-28T20:54:32;22.40;82.20
15298;DHT22;7750;48.796;9.026;2023-07-28T20:59:36;22.40;82.10
15298;DHT22;7750;48.796;9.026;2023-07-28T21:04:36;22.30;81.90
15298;DHT22;7750;48.796;9.026;2023-07-28T21:09:37;22.30;81.90
15298;DHT22;7750;48.796;9.026;2023-07-28T21:14:37;22.20;81.80
15298;DHT22;7750;48.796;9.026;2023-07-28T21:19:38;22.20;81.70
15298;DHT22;7750;48.796;9.026;2023-07-28T21:24:39;22.40;81.00
15298;DHT22;7750;48.796;9.026;2023-07-28T21:29:39;22.20;81.20
15298;DHT22;7750;48.796;9.026;2023-07-28T21:34:40;22.10;81.40
15298;DHT22;7750;48.796;9.026;2023-07-28T21:39:41;22.00;81.60
15298;DHT22;7750;48.796;9.026;2023-07-28T21:44:41;21.90;81.80
15298;DHT22;7750;48.796;9.026;2023-07-28T21:49:42;21.90;82.70
15298;DHT22;7750;48.796;9.026;2023-07-28T21:54:43;21.90;82.10
15298;DHT22;7750;48.796;9.026;2023-07-28T21:59:47;21.80;82.10
15298;DHT22;7750;48.796;9.026;2023-07-28T22:04:47;21.80;82.20
15298;DHT22;7750;48.796;9.026;2023-07-28T22:09:48;21.80;82.20
15298;DHT22;7750;48.796;9.026;2023-07-28T22:14:49;21.70;82.20
15298;DHT22;7750;48.796;9.026;2023-07-28T22:19:50;21.70;82.40
15298;DHT22;7750;48.796;9.026;2023-07-28T22:24:50;21.60;82.40
15298;DHT22;7750;48.796;9.026;2023-07-28T22:29:51;21.60;82.40
15298;DHT22;7750;48.796;9.026;2023-07-28T22:34:54;21.50;82.50
15298;DHT22;7750;48.796;9.026;2023-07-28T22:39:54;21.50;82.70
15298;DHT22;7750;48.796;9.026;2023-07-28T22:44:55;21.50;82.80
15298;DHT22;7750;48.796;9.026;2023-07-28T22:49:56;21.50;82.90
15298;DHT22;7750;48.796;9.026;2023-07-28T22:54:56;21.50;82.90
15298;DHT22;7750;48.796;9.026;2023-07-28T22:59:57;21.40;83.10
15298;DHT22;7750;48.796;9.026;2023-07-28T23:04:58;21.40;83.30
15298;DHT22;7750;48.796;9.026;2023-07-28T23:09:58;21.40;83.50
15298;DHT22;7750;48.796;9.026;2023-07-28T23:14:59;21.40;83.60
15298;DHT22;7750;48.796;9.026;2023-07-28T23:20:00;21.30;83.60
15298;DHT22;7750;48.796;9.026;2023-07-28T23:25:00;21.30;83.60
15298;DHT22;7750;48.796;9.026;2023-07-28T23:30:01;21.30;83.70
15298;DHT22;7750;48.796;9.026;2023-07-28T23:35:02;21.30;83.60
15298;DHT22;7750;48.796;9.026;2023-07-28T23:40:03;21.30;83.70
15298;DHT22;7750;48.796;9.026;2023-07-28T23:45:04;21.30;83.80
15298;DHT22;7750;48.796;9.026;2023-07-28T23:50:06;21.30;84.10
15298;DHT22;7750;48.796;9.026;2023-07-28T23:55:09;21.20;84.20
